createdAt,value
2023-02-24T00:02:20.341Z,101259.90
2023-02-24T00:04:50.820Z,101253.71
2023-02-24T00:07:21.635Z,101253.93
2023-02-24T00:09:52.399Z,101255.30
2023-02-24T00:12:23.189Z,101253.99
2023-02-24T00:14:54.041Z,101251.66
2023-02-24T00:17:24.806Z,101253.60
2023-02-24T00:19:55.525Z,101248.09
2023-02-24T00:22:26.475Z,101242.87
2023-02-24T00:24:57.077Z,101239.72
2023-02-24T00:27:27.883Z,101240.47
2023-02-24T00:29:58.659Z,101242.94
2023-02-24T00:32:29.614Z,101240.07
2023-02-24T00:35:00.264Z,101238.95
2023-02-24T00:37:31.055Z,101236.38
2023-02-24T00:40:01.850Z,101233.11
2023-02-24T00:42:32.757Z,101227.02
2023-02-24T00:45:03.447Z,101223.24
2023-02-24T00:47:34.241Z,101222.17
2023-02-24T00:50:05.033Z,101218.60
2023-02-24T00:52:35.842Z,101210.32
2023-02-24T00:55:06.272Z,101203.42
2023-02-24T00:57:37.079Z,101199.85
2023-02-24T01:00:07.870Z,101198.00
2023-02-24T01:02:38.676Z,101191.55
2023-02-24T01:05:09.475Z,101185.96
2023-02-24T01:07:40.285Z,101185.59
2023-02-24T01:10:11.117Z,101179.76
2023-02-24T01:12:41.897Z,101172.66
2023-02-24T01:15:12.708Z,101163.77
2023-02-24T01:17:43.523Z,101157.50
2023-02-24T01:20:14.315Z,101152.66
2023-02-24T01:22:45.153Z,101151.20
2023-02-24T01:25:16.052Z,101142.07
2023-02-24T01:27:46.748Z,101140.87
2023-02-24T01:30:17.637Z,101132.86
2023-02-24T01:32:48.804Z,101125.78
2023-02-24T01:35:19.155Z,101120.52
2023-02-24T01:37:49.969Z,101120.69
2023-02-24T01:40:21.172Z,101116.02
2023-02-24T01:42:51.615Z,101112.08
2023-02-24T01:45:22.422Z,101105.40
2023-02-24T01:47:53.253Z,101102.20
2023-02-24T01:50:24.013Z,101098.96
2023-02-24T01:52:54.829Z,101091.88
2023-02-24T01:55:25.622Z,101086.94
2023-02-24T01:57:56.445Z,101087.30
2023-02-24T02:00:27.224Z,101081.07
2023-02-24T02:02:57.813Z,101079.94
2023-02-24T02:05:28.570Z,101072.28
2023-02-24T02:07:59.388Z,101066.15
2023-02-24T02:10:30.295Z,101064.63
2023-02-24T02:13:01.002Z,101061.38
2023-02-24T02:15:31.819Z,101056.43
2023-02-24T02:18:02.821Z,101052.86
2023-02-24T02:20:33.436Z,101046.11
2023-02-24T02:23:04.262Z,101044.73
2023-02-24T02:25:35.079Z,101041.64
2023-02-24T02:28:05.755Z,101037.15
2023-02-24T02:30:36.512Z,101037.29
2023-02-24T02:33:07.270Z,101031.12
2023-02-24T02:35:38.060Z,101033.43
2023-02-24T02:38:08.894Z,101026.85
2023-02-24T02:40:39.680Z,101028.27
2023-02-24T02:43:10.511Z,101026.65
2023-02-24T02:45:41.394Z,101019.56
2023-02-24T02:48:12.225Z,101020.51
2023-02-24T02:50:42.961Z,101017.45
2023-02-24T02:53:13.770Z,101013.92
2023-02-24T02:55:44.707Z,101010.60
2023-02-24T02:58:15.378Z,101011.07
2023-02-24T03:00:46.201Z,101006.23
2023-02-24T03:03:17.017Z,101008.61
2023-02-24T03:05:47.818Z,101006.72
2023-02-24T03:08:18.690Z,100999.88
2023-02-24T03:10:49.447Z,100998.53
2023-02-24T03:13:20.402Z,100997.73
2023-02-24T03:15:51.064Z,100992.09
2023-02-24T03:18:21.914Z,100988.68
2023-02-24T03:20:52.714Z,100981.81
2023-02-24T03:23:23.513Z,100978.64
2023-02-24T03:25:54.312Z,100976.61
2023-02-24T03:28:25.108Z,100973.77
2023-02-24T03:30:55.939Z,100970.24
2023-02-24T03:33:26.708Z,100970.91
2023-02-24T03:35:57.513Z,100968.70
2023-02-24T03:38:28.328Z,100965.54
2023-02-24T03:40:59.131Z,100965.06
2023-02-24T03:43:29.936Z,100959.37
2023-02-24T03:46:00.764Z,100957.88
2023-02-24T03:48:31.546Z,100960.51
2023-02-24T03:51:02.417Z,100959.94
2023-02-24T03:53:33.154Z,100959.43
2023-02-24T03:56:03.923Z,100957.08
2023-02-24T03:58:34.736Z,100951.41
2023-02-24T04:01:05.541Z,100938.58
2023-02-24T04:03:36.416Z,100939.89
2023-02-24T04:06:07.138Z,100932.87
2023-02-24T04:08:38.080Z,100935.88
2023-02-24T04:11:08.761Z,100933.08
2023-02-24T04:13:39.603Z,100932.34
2023-02-24T04:16:10.432Z,100930.28
2023-02-24T04:18:41.731Z,100926.97
2023-02-24T04:21:12.019Z,100918.80
2023-02-24T04:23:42.850Z,100915.29
2023-02-24T04:26:13.659Z,100909.08
2023-02-24T04:28:44.481Z,100905.88
2023-02-24T04:31:15.478Z,100903.49
2023-02-24T04:33:46.218Z,100897.48
2023-02-24T04:36:16.904Z,100888.73
2023-02-24T04:38:47.780Z,100882.93
2023-02-24T04:41:18.998Z,100876.34
2023-02-24T04:43:49.486Z,100867.58
2023-02-24T04:46:20.268Z,100863.10
2023-02-24T04:48:51.027Z,100854.37
2023-02-24T04:51:22.040Z,100852.12
2023-02-24T04:53:52.625Z,100846.23
2023-02-24T04:56:23.430Z,100841.73
2023-02-24T04:58:53.909Z,100837.15
2023-02-24T05:01:24.710Z,100832.91
2023-02-24T05:03:55.601Z,100825.11
2023-02-24T05:06:26.351Z,100822.12
2023-02-24T05:08:57.206Z,100815.33
2023-02-24T05:11:28.057Z,100812.25
2023-02-24T05:13:58.842Z,100809.21
2023-02-24T05:16:29.744Z,100804.57
2023-02-24T05:19:00.496Z,100799.35
2023-02-24T05:21:31.316Z,100787.70
2023-02-24T05:24:02.165Z,100782.62
2023-02-24T05:26:33.087Z,100771.85
2023-02-24T05:29:03.828Z,100773.55
2023-02-24T05:31:34.880Z,100764.79
2023-02-24T05:34:05.504Z,100757.46
2023-02-24T05:36:36.329Z,100754.55
2023-02-24T05:39:06.914Z,100753.02
2023-02-24T05:41:37.707Z,100747.49
2023-02-24T05:44:08.702Z,100744.31
2023-02-24T05:46:39.387Z,100739.74
2023-02-24T05:49:10.215Z,100735.44
2023-02-24T05:51:41.013Z,100729.42
2023-02-24T05:54:11.584Z,100722.27
2023-02-24T05:56:42.392Z,100717.95
2023-02-24T05:59:13.243Z,100713.03
2023-02-24T06:01:44.106Z,100707.96
2023-02-24T06:04:14.909Z,100703.23
2023-02-24T06:06:45.734Z,100697.62
2023-02-24T06:09:16.562Z,100691.04
2023-02-24T06:11:47.457Z,100689.84
2023-02-24T06:14:18.241Z,100688.36
2023-02-24T06:16:49.118Z,100681.28
2023-02-24T06:19:19.902Z,100684.48
2023-02-24T06:21:50.727Z,100684.45
2023-02-24T06:24:21.590Z,100685.84
2023-02-24T06:26:52.414Z,100676.93
2023-02-24T06:29:23.282Z,100676.93
2023-02-24T06:31:54.274Z,100675.00
2023-02-24T06:34:24.978Z,100666.00
2023-02-24T06:36:55.782Z,100667.20
2023-02-24T06:39:26.635Z,100663.82
2023-02-24T06:41:57.470Z,100666.38
2023-02-24T06:44:28.299Z,100660.59
2023-02-24T06:46:59.170Z,100659.30
2023-02-24T06:49:29.978Z,100655.36
2023-02-24T06:52:00.803Z,100651.09
2023-02-24T06:54:31.635Z,100652.24
2023-02-24T06:57:02.500Z,100646.11
2023-02-24T06:59:33.039Z,100635.10
2023-02-24T07:02:03.764Z,100632.01
2023-02-24T07:04:34.679Z,100624.08
2023-02-24T07:07:05.438Z,100620.62
2023-02-24T07:09:36.362Z,100617.66
2023-02-24T07:12:07.098Z,100615.55
2023-02-24T07:14:37.948Z,100618.38
2023-02-24T07:17:08.872Z,100614.86
2023-02-24T07:19:39.606Z,100611.64
2023-02-24T07:22:10.420Z,100608.58
2023-02-24T07:24:41.258Z,100599.44
2023-02-24T07:27:12.101Z,100594.17
2023-02-24T07:29:42.917Z,100584.80
2023-02-24T07:32:13.936Z,100585.15
2023-02-24T07:34:44.578Z,100578.38
2023-02-24T07:37:15.409Z,100577.03
2023-02-24T07:39:46.312Z,100575.82
2023-02-24T07:42:17.048Z,100576.08
2023-02-24T07:44:47.874Z,100573.74
2023-02-24T07:47:18.694Z,100566.10
2023-02-24T07:49:49.522Z,100561.23
2023-02-24T07:52:20.317Z,100556.31
2023-02-24T07:54:51.128Z,100554.57
2023-02-24T07:57:21.916Z,100552.29
2023-02-24T07:59:52.735Z,100549.43
2023-02-24T08:02:23.720Z,100544.27
2023-02-24T08:04:54.331Z,100534.56
2023-02-24T08:07:25.575Z,100535.33
2023-02-24T08:09:55.681Z,100526.39
2023-02-24T08:12:26.462Z,100518.74
2023-02-24T08:14:57.277Z,100510.68
2023-02-24T08:17:28.095Z,100513.93
2023-02-24T08:19:58.917Z,100509.86
2023-02-24T08:22:29.710Z,100503.40
2023-02-24T08:25:00.554Z,100498.80
2023-02-24T08:27:31.335Z,100495.86
2023-02-24T08:30:02.186Z,100491.77
2023-02-24T08:32:33.164Z,100490.58
2023-02-24T08:35:03.839Z,100480.86
2023-02-24T08:37:34.385Z,100479.25
2023-02-24T08:40:04.768Z,100474.68
2023-02-24T08:42:35.173Z,100475.51
2023-02-24T08:45:06.076Z,100467.64
2023-02-24T08:47:36.948Z,100465.98
2023-02-24T08:50:07.649Z,100458.68
2023-02-24T08:52:38.498Z,100451.79
2023-02-24T08:55:09.373Z,100449.79
2023-02-24T08:57:40.120Z,100447.20
2023-02-24T09:00:10.603Z,100440.17
2023-02-24T09:02:41.524Z,100439.69
2023-02-24T09:05:14.425Z,100435.82
2023-02-24T09:07:43.205Z,100429.33
2023-02-24T09:10:13.960Z,100429.38
2023-02-24T09:12:44.799Z,100424.37
2023-02-24T09:15:15.612Z,100414.97
2023-02-24T09:17:46.449Z,100406.47
2023-02-24T09:20:17.285Z,100405.39
2023-02-24T09:22:48.106Z,100399.30
2023-02-24T09:25:19.003Z,100397.85
2023-02-24T09:27:49.776Z,100394.96
2023-02-24T09:30:20.618Z,100391.86
2023-02-24T09:32:51.389Z,100388.02
2023-02-24T09:35:21.998Z,100379.29
2023-02-24T09:37:52.794Z,100377.26
2023-02-24T09:40:23.668Z,100367.43
2023-02-24T09:42:54.424Z,100363.05
2023-02-24T09:45:25.512Z,100359.01
2023-02-24T09:47:55.886Z,100354.50
2023-02-24T09:50:51.510Z,100352.25
2023-02-24T09:53:02.852Z,100352.53
2023-02-24T09:55:28.231Z,100345.24
2023-02-24T09:57:59.122Z,100342.09
2023-02-24T10:00:29.862Z,100337.66
2023-02-24T10:03:00.492Z,100337.89
2023-02-24T10:05:31.172Z,100332.36
2023-02-24T10:08:01.699Z,100330.64
2023-02-24T10:10:32.529Z,100315.54
2023-02-24T10:13:03.354Z,100314.81
2023-02-24T10:15:34.191Z,100313.13
2023-02-24T10:18:04.965Z,100311.18
2023-02-24T10:20:35.542Z,100303.99
2023-02-24T10:23:06.350Z,100293.10
2023-02-24T10:25:37.127Z,100298.56
2023-02-24T10:28:07.967Z,100291.73
2023-02-24T10:30:38.896Z,100279.31
2023-02-24T10:33:09.537Z,100272.91
2023-02-24T10:35:40.413Z,100281.40
2023-02-24T10:38:11.181Z,100273.13
2023-02-24T10:40:42.149Z,100266.80
2023-02-24T10:43:12.782Z,100266.92
2023-02-24T10:45:43.612Z,100261.34
2023-02-24T10:48:15.551Z,100261.28
2023-02-24T10:50:55.385Z,100264.48
2023-02-24T10:53:15.612Z,100247.38
2023-02-24T10:55:46.436Z,100252.01
2023-02-24T10:58:17.221Z,100250.63
2023-02-24T11:00:48.029Z,100247.31
2023-02-24T11:03:31.341Z,100247.83
2023-02-24T11:05:49.335Z,100248.87
2023-02-24T11:08:20.135Z,100243.90
2023-02-24T11:10:50.939Z,100245.28
2023-02-24T11:13:21.735Z,100241.02
2023-02-24T11:15:52.606Z,100239.24
2023-02-24T11:18:23.450Z,100233.24
2023-02-24T11:20:54.157Z,100230.95
2023-02-24T11:23:25.018Z,100236.34
2023-02-24T11:25:55.735Z,100229.05
2023-02-24T11:28:26.532Z,100235.10
2023-02-24T11:30:57.435Z,100221.60
2023-02-24T11:33:27.844Z,100214.59
2023-02-24T11:35:58.669Z,100212.96
2023-02-24T11:38:29.423Z,100209.81
2023-02-24T11:40:59.896Z,100205.07
2023-02-24T11:43:30.650Z,100199.27
2023-02-24T11:46:01.498Z,100199.30
2023-02-24T11:48:32.275Z,100194.96
2023-02-24T11:51:02.997Z,100183.68
2023-02-24T11:53:33.750Z,100175.49
2023-02-24T11:56:03.966Z,100160.96
2023-02-24T11:58:34.723Z,100156.45
2023-02-24T12:01:05.146Z,100154.24
2023-02-24T12:03:35.892Z,100148.92
2023-02-24T12:06:06.797Z,100144.11
2023-02-24T12:08:37.408Z,100138.06
2023-02-24T12:11:08.148Z,100132.73
2023-02-24T12:13:38.890Z,100123.62
2023-02-24T12:16:09.704Z,100119.75
2023-02-24T12:18:40.432Z,100123.15
2023-02-24T12:21:11.116Z,100123.45
2023-02-24T12:23:41.869Z,100106.15
2023-02-24T12:26:11.961Z,100112.00
2023-02-24T12:28:42.237Z,100111.22
2023-02-24T12:31:13.081Z,100104.71
2023-02-24T12:33:43.717Z,100097.53
2023-02-24T12:36:14.383Z,100097.68
2023-02-24T12:38:45.095Z,100093.12
2023-02-24T12:41:15.986Z,100088.48
2023-02-24T12:43:46.209Z,100086.53
2023-02-24T12:46:16.895Z,100078.78
2023-02-24T12:48:47.297Z,100071.99
2023-02-24T12:51:18.154Z,100069.85
2023-02-24T12:53:48.797Z,100063.82
2023-02-24T12:56:19.612Z,100081.54
2023-02-24T12:58:50.376Z,100067.71
2023-02-24T13:01:21.201Z,100062.02
2023-02-24T13:03:51.423Z,100054.33
2023-02-24T13:06:22.221Z,100049.81
2023-02-24T13:08:52.584Z,100049.54
2023-02-24T13:11:23.548Z,100047.30
2023-02-24T13:13:54.007Z,100048.58
2023-02-24T13:16:24.770Z,100041.22
2023-02-24T13:18:55.418Z,100038.97
2023-02-24T13:21:26.123Z,100038.40
2023-02-24T13:23:58.223Z,100028.87
2023-02-24T13:26:27.504Z,100023.77
2023-02-24T13:28:58.179Z,100020.01
2023-02-24T13:31:29.072Z,100017.57
2023-02-24T13:33:59.270Z,100010.01
2023-02-24T13:36:29.976Z,100010.92
2023-02-24T13:39:00.652Z,100021.92
2023-02-24T13:41:31.498Z,100057.24
2023-02-24T13:44:01.742Z,100065.76
2023-02-24T13:46:32.342Z,100065.64
2023-02-24T13:49:03.029Z,100055.99
2023-02-24T13:51:33.760Z,100056.70
2023-02-24T13:54:04.498Z,100039.98
2023-02-24T13:56:34.561Z,100028.77
2023-02-24T13:59:05.234Z,100025.08
2023-02-24T14:01:35.992Z,100018.81
2023-02-24T14:04:06.633Z,100014.32
2023-02-24T14:06:37.881Z,100010.09
2023-02-24T14:09:08.086Z,100004.71
2023-02-24T14:11:38.809Z,100003.80
2023-02-24T14:14:09.526Z,100000.88
2023-02-24T14:16:40.266Z,100001.83
2023-02-24T14:19:10.952Z,99998.47
2023-02-24T14:21:41.691Z,99998.58
2023-02-24T14:24:12.231Z,99995.16
2023-02-24T14:26:43.068Z,99991.39
2023-02-24T14:29:13.812Z,99990.88
2023-02-24T14:31:44.565Z,99990.58
2023-02-24T14:34:15.126Z,99990.74
2023-02-24T14:36:45.919Z,99981.80
2023-02-24T14:39:16.503Z,99983.91
2023-02-24T14:41:47.207Z,99983.14
2023-02-24T14:44:17.895Z,99973.78
2023-02-24T14:46:48.820Z,99975.31
2023-02-24T14:49:19.244Z,99970.38
2023-02-24T14:51:49.942Z,99967.68
2023-02-24T14:54:20.616Z,99970.88
2023-02-24T14:56:51.308Z,99964.23
2023-02-24T14:59:22.000Z,99967.07
2023-02-24T15:01:52.782Z,99964.25
2023-02-24T15:04:23.364Z,99958.13
2023-02-24T15:06:54.113Z,99957.48
2023-02-24T15:09:24.737Z,99959.19
2023-02-24T15:11:55.469Z,99961.74
2023-02-24T15:14:26.092Z,99960.28
2023-02-24T15:16:56.836Z,99965.92
2023-02-24T15:19:27.461Z,99965.15
2023-02-24T15:21:58.204Z,99966.53
2023-02-24T15:24:28.809Z,99979.64
2023-02-24T15:26:59.477Z,99969.38
2023-02-24T15:29:30.149Z,99969.65
2023-02-24T15:32:01.135Z,99977.98
2023-02-24T15:34:31.559Z,99981.62
2023-02-24T15:37:02.289Z,99981.23
2023-02-24T15:39:33.076Z,99974.54
2023-02-24T15:42:03.881Z,99970.00
2023-02-24T15:44:34.596Z,99965.85
2023-02-24T15:47:05.393Z,99959.89
2023-02-24T15:49:36.061Z,99955.52
2023-02-24T15:52:06.736Z,99957.36
2023-02-24T15:54:37.444Z,99965.70
2023-02-24T15:57:08.172Z,99965.86
2023-02-24T15:59:38.885Z,99968.56
2023-02-24T16:02:09.628Z,99972.95
2023-02-24T16:04:40.315Z,99971.85
2023-02-24T16:07:11.106Z,99967.11
2023-02-24T16:09:41.745Z,99966.76
2023-02-24T16:12:12.470Z,99964.31
2023-02-24T16:14:43.187Z,99971.29
2023-02-24T16:17:13.906Z,99972.36
2023-02-24T16:19:44.609Z,99974.23
2023-02-24T16:22:15.324Z,99966.84
2023-02-24T16:24:46.141Z,99966.94
2023-02-24T16:27:16.460Z,99967.14
2023-02-24T16:29:47.204Z,99967.26
2023-02-24T16:32:18.126Z,99965.27
2023-02-24T16:34:48.603Z,99988.67
2023-02-24T16:37:19.388Z,99992.77
2023-02-24T16:39:50.088Z,99986.64
2023-02-24T16:42:21.904Z,99985.75
2023-02-24T16:44:51.547Z,99981.50
2023-02-24T16:47:22.035Z,99983.00
2023-02-24T16:49:52.754Z,99990.75
2023-02-24T16:52:23.591Z,99989.24
2023-02-24T16:54:54.248Z,99995.96
2023-02-24T16:57:25.011Z,99998.33
2023-02-24T16:59:55.751Z,100000.51
2023-02-24T17:02:26.655Z,100007.57
2023-02-24T17:04:57.270Z,100008.55
2023-02-24T17:07:28.128Z,100012.06
2023-02-24T17:09:58.794Z,100015.53
2023-02-24T17:12:29.265Z,100016.63
2023-02-24T17:15:00.003Z,100017.61
2023-02-24T17:17:30.764Z,100027.81
2023-02-24T17:20:01.518Z,100028.53
2023-02-24T17:22:32.317Z,100028.36
2023-02-24T17:25:03.022Z,100034.12
2023-02-24T17:27:33.791Z,100030.29
2023-02-24T17:30:04.197Z,100026.91
2023-02-24T17:32:34.716Z,100034.63
2023-02-24T17:35:05.463Z,100034.47
2023-02-24T17:37:36.251Z,100035.45
2023-02-24T17:40:07.001Z,100033.24
2023-02-24T17:42:37.787Z,100038.71
2023-02-24T17:45:08.315Z,100040.75
2023-02-24T17:47:38.708Z,100042.01
2023-02-24T17:50:09.479Z,100048.00
2023-02-24T17:52:40.312Z,100048.91
2023-02-24T17:55:11.049Z,100048.88
2023-02-24T17:57:41.864Z,100053.10
2023-02-24T18:00:12.624Z,100059.39
2023-02-24T18:02:43.309Z,100055.21
2023-02-24T18:05:13.919Z,100056.33
2023-02-24T18:07:44.808Z,100053.04
2023-02-24T18:10:15.495Z,100055.37
2023-02-24T18:12:46.281Z,100066.03
2023-02-24T18:15:17.053Z,100070.09
2023-02-24T18:17:47.944Z,100064.74
2023-02-24T18:20:18.612Z,100066.14
2023-02-24T18:22:49.411Z,100059.77
2023-02-24T18:25:19.905Z,100071.87
2023-02-24T18:27:50.784Z,100067.49
2023-02-24T18:30:21.489Z,100071.47
2023-02-24T18:32:52.239Z,100066.40
2023-02-24T18:35:22.717Z,100070.27
2023-02-24T18:37:53.619Z,100067.30
2023-02-24T18:40:24.309Z,100064.00
2023-02-24T18:42:55.117Z,100068.75
2023-02-24T18:45:25.920Z,100070.13
2023-02-24T18:47:56.784Z,100071.54
2023-02-24T18:50:27.520Z,100068.82
2023-02-24T18:52:58.433Z,100066.43
2023-02-24T18:55:29.136Z,100068.39
2023-02-24T18:57:59.681Z,100067.40
2023-02-24T19:00:30.482Z,100067.96
2023-02-24T19:03:01.103Z,100070.15
2023-02-24T19:05:38.416Z,100067.44
2023-02-24T19:08:02.309Z,100075.16
2023-02-24T19:10:33.074Z,100074.23
2023-02-24T19:13:05.140Z,100072.46
2023-02-24T19:15:34.411Z,100071.25
2023-02-24T19:18:05.281Z,100075.02
2023-02-24T19:20:36.038Z,100073.41
2023-02-24T19:23:06.933Z,100076.52
2023-02-24T19:25:37.650Z,100074.59
2023-02-24T19:28:08.457Z,100077.87
2023-02-24T19:30:39.257Z,100076.01
2023-02-24T19:33:10.134Z,100079.64
2023-02-24T19:35:40.601Z,100078.79
2023-02-24T19:38:11.443Z,100075.73
2023-02-24T19:40:42.175Z,100075.27
2023-02-24T19:43:13.031Z,100086.79
2023-02-24T19:45:43.994Z,100079.67
2023-02-24T19:48:14.693Z,100075.52
2023-02-24T19:50:45.383Z,100084.56
2023-02-24T19:53:16.203Z,100086.15
2023-02-24T19:55:46.357Z,100090.32
2023-02-24T19:58:17.164Z,100089.09
2023-02-24T20:00:48.084Z,100090.48
2023-02-24T20:03:18.779Z,100090.79
2023-02-24T20:05:49.648Z,100090.19
2023-02-24T20:08:20.475Z,100095.84
2023-02-24T20:10:50.886Z,100091.10
2023-02-24T20:13:21.710Z,100093.94
2023-02-24T20:15:52.587Z,100100.75
2023-02-24T20:18:23.391Z,100109.67
2023-02-24T20:20:54.100Z,100108.20
2023-02-24T20:23:24.992Z,100105.29
2023-02-24T20:25:55.693Z,100102.86
2023-02-24T20:28:26.514Z,100105.02
2023-02-24T20:30:57.499Z,100103.82
2023-02-24T20:33:28.124Z,100109.78
2023-02-24T20:35:58.917Z,100110.03
2023-02-24T20:38:29.735Z,100110.00
2023-02-24T20:41:00.499Z,100110.72
2023-02-24T20:43:30.987Z,100115.06
2023-02-24T20:46:01.805Z,100117.15
2023-02-24T20:48:32.554Z,100115.40
2023-02-24T20:51:03.335Z,100126.61
2023-02-24T20:53:36.430Z,100139.73
2023-02-24T20:56:04.904Z,100145.41
2023-02-24T20:58:35.714Z,100139.93
2023-02-24T21:01:06.541Z,100141.21
2023-02-24T21:03:37.281Z,100148.86
2023-02-24T21:06:10.313Z,100142.80
2023-02-24T21:08:38.903Z,100135.77
2023-02-24T21:11:11.129Z,100140.19
2023-02-24T21:13:40.451Z,100131.53
2023-02-24T21:16:11.297Z,100133.49
2023-02-24T21:18:41.994Z,100128.36
2023-02-24T21:21:12.763Z,100131.18
2023-02-24T21:23:43.607Z,100128.43
2023-02-24T21:26:14.337Z,100129.40
2023-02-24T21:28:45.110Z,100128.48
2023-02-24T21:31:16.072Z,100136.19
2023-02-24T21:33:46.670Z,100129.62
2023-02-24T21:36:17.437Z,100130.40
2023-02-24T21:38:48.227Z,100128.79
2023-02-24T21:41:18.990Z,100124.10
2023-02-24T21:43:49.781Z,100122.86
2023-02-24T21:46:21.046Z,100128.83
2023-02-24T21:48:51.330Z,100129.10
2023-02-24T21:51:21.824Z,100119.49
2023-02-24T21:53:52.626Z,100119.24
2023-02-24T21:56:23.725Z,100134.91
2023-02-24T21:58:54.184Z,100132.87
2023-02-24T22:01:25.154Z,100131.72
2023-02-24T22:03:55.758Z,100139.11
2023-02-24T22:06:28.434Z,100140.63
2023-02-24T22:08:57.349Z,100140.90
2023-02-24T22:11:28.168Z,100140.79
2023-02-24T22:13:58.965Z,100143.60
2023-02-24T22:16:29.889Z,100148.45
2023-02-24T22:19:00.591Z,100147.21
2023-02-24T22:21:31.401Z,100148.46
2023-02-24T22:24:02.200Z,100151.11
2023-02-24T22:26:33.039Z,100146.85
2023-02-24T22:29:03.816Z,100150.07
2023-02-24T22:31:34.642Z,100151.79
2023-02-24T22:34:05.429Z,100149.95
2023-02-24T22:36:36.203Z,100139.55
2023-02-24T22:39:07.013Z,100145.94
2023-02-24T22:41:37.772Z,100142.83
2023-02-24T22:44:08.581Z,100145.79
2023-02-24T22:46:39.521Z,100146.27
2023-02-24T22:49:10.182Z,100148.52
2023-02-24T22:51:40.751Z,100154.78
2023-02-24T22:54:11.492Z,100155.00
2023-02-24T22:56:42.334Z,100158.43
2023-02-24T22:59:13.176Z,100166.27
2023-02-24T23:01:43.906Z,100164.14
2023-02-24T23:04:14.692Z,100168.75
2023-02-24T23:06:45.479Z,100175.30
2023-02-24T23:09:16.290Z,100182.84
2023-02-24T23:11:47.082Z,100175.71
2023-02-24T23:14:17.988Z,100178.80
2023-02-24T23:16:48.535Z,100182.22
2023-02-24T23:19:19.186Z,100186.85
2023-02-24T23:21:49.954Z,100182.59
2023-02-24T23:24:20.768Z,100186.11
2023-02-24T23:26:51.562Z,100192.15
2023-02-24T23:29:22.398Z,100189.87
2023-02-24T23:31:53.370Z,100197.66
2023-02-24T23:34:24.018Z,100190.62
2023-02-24T23:36:54.880Z,100193.14
2023-02-24T23:39:25.639Z,100194.73
2023-02-24T23:41:57.360Z,100197.34
2023-02-24T23:44:27.282Z,100196.40
2023-02-24T23:46:58.067Z,100200.36
2023-02-24T23:49:42.534Z,100201.71
2023-02-24T23:51:59.679Z,100197.66
2023-02-24T23:54:30.229Z,100196.75
2023-02-24T23:57:01.015Z,100196.13
2023-02-24T23:59:31.857Z,100200.02
